Terminal Aerodrome Forecast
Issued by NWS

Home | Current Version | Previous Version | Text Only | Print | Product List | Glossary On
Versions: 1 2 3 4 5 6 7 8 9 10 11 12 13 14 15 16 17 18 19 20 21 22 23 24 25 26 27 28 29 30
000
FTUS44 KLIX 211100
TAFHDC
TAF
KHDC 211120Z 2112/2212 04006KT P6SM BKN040
     FM211400 05005KT P6SM SCT040
     FM220300 11005KT P6SM SCT040
     FM220800 14004KT 1SM BR SCT020
     FM220900 15004KT 1SM BR BKN020
      AMD NOT SKED=

USA.gov is the U.S. government's official web portal to all federal, state and local government web resources and services.